Latest Weather Observations for Mt Wellington

IDT60901

Issued at 2:51 pm EST Sunday 26 April 2015 (issued every 10 minutes, with the page automatically refreshed every 10 minutes)

About weather observations | Map of Hobart area stations | Latest observations for Hobart area | Other Formats
Station Details ID: 094087 Name: MOUNT WELLINGTON Lat: -42.90 Lon: 147.24 Height: 1260.47 m
Data from the previous 72 hours. | See also: Recent months at Mt Wellington
Date/Time
EST
Tmp

°C
App
Tmp
°C
Dew
Point
°C
Rel
Hum
%
Delta-T

°C
Wind Press
QNH
hPa
Press
MSL
hPa
Rain
since
9 am
mm
Dir
 
Spd
km/h
Gust
km/h
Spd
kts
Gust
kts
26/02:30pm 2.4 -6.0 1.4 93 0.4 WSW 35 57 19 31 - - 0.0
26/02:29pm 2.4 -5.6 1.4 93 0.4 WSW 33 57 18 31 - - 0.0
26/02:00pm 3.0 -5.3 2.3 95 0.3 SW 35 46 19 25 - - 0.0
26/01:42pm 2.1 -7.4 1.5 96 0.3 WSW 41 59 22 32 - - 0.0
26/01:30pm 2.3 -4.7 1.9 97 0.2 WSW 28 43 15 23 - - 0.0
26/01:00pm 2.8 -5.9 2.1 95 0.3 W 37 50 20 27 - - 0.0
26/12:47pm 3.3 -4.9 2.7 96 0.3 WSW 35 56 19 30 - - 0.0
26/12:30pm 2.2 -5.8 1.8 97 0.2 WSW 33 44 18 24 - - 0.0
26/12:00pm 2.3 -6.4 1.9 97 0.2 WSW 37 48 20 26 - - 0.0
26/11:30am 2.1 -6.3 1.8 98 0.1 WSW 35 50 19 27 - - 0.0
26/11:00am 1.3 -7.6 1.0 98 0.1 WSW 37 50 20 27 - - 0.0
26/10:30am 0.7 -8.3 0.4 98 0.1 WSW 37 46 20 25 - - 0.0
26/10:05am 0.1 -3.1 -0.2 98 0.1 WSW 6 39 3 21 - - 0.0
26/10:00am 0.0 -2.0 -0.3 98 0.1 CALM 0 0 0 0 - - 0.0
26/09:30am -0.5 -2.6 -0.8 98 0.1 CALM 0 0 0 0 - - 0.0
26/09:00am -0.4 -2.5 -0.7 98 0.1 CALM 0 0 0 0 - - 1.6
26/08:30am -0.5 -2.6 -0.8 98 0.1 CALM 0 0 0 0 - - 1.6
26/08:00am -0.5 -2.6 -0.8 98 0.1 CALM 0 0 0 0 - - 1.6
26/07:30am -0.6 -2.7 -0.9 98 0.1 CALM 0 0 0 0 - - 1.6
26/07:00am -0.7 -2.8 -1.0 98 0.1 CALM 0 0 0 0 - - 1.6
26/06:30am -0.8 -2.9 -1.1 98 0.1 CALM 0 0 0 0 - - 1.6
26/06:00am -0.7 -2.8 -1.0 98 0.1 CALM 0 0 0 0 - - 1.4
26/05:30am -0.7 -2.8 -1.0 98 0.1 CALM 0 0 0 0 - - 1.4
26/05:00am -0.5 -2.6 -0.8 98 0.1 CALM 0 0 0 0 - - 1.4
26/04:30am -1.0 -7.0 -1.3 98 0.1 WSW 20 30 11 16 - - 1.4
26/04:00am -0.9 -8.0 -1.2 98 0.1 WSW 26 32 14 17 - - 1.4
26/03:30am -0.4 -7.0 -0.7 98 0.1 WSW 24 33 13 18 - - 1.4
26/03:00am -0.1 -5.9 -0.4 98 0.1 WSW 20 24 11 13 - - 1.4
26/02:30am 0.1 -5.1 -0.2 98 0.1 W 17 22 9 12 - - 1.4
26/02:00am 0.2 -5.4 -0.1 98 0.1 W 19 26 10 14 - - 1.2
26/01:30am 0.3 -4.9 0.0 98 0.1 W 17 24 9 13 - - 1.2
26/01:00am 0.4 -5.2 0.1 98 0.1 WSW 19 24 10 13 - - 1.2
26/12:30am 0.4 -4.8 0.1 98 0.1 WSW 17 22 9 12 - - 1.2
26/12:00am 0.3 -4.5 0.0 98 0.1 WSW 15 19 8 10 - - 1.2
 
Date/Time
EST
Tmp

°C
App
Tmp
°C
Dew
Point
°C
Rel
Hum
%
Delta-T

°C
Wind Press
QNH
hPa
Press
MSL
hPa
Rain
since
9 am
mm
Dir
 
Spd
km/h
Gust
km/h
Spd
kts
Gust
kts
25/11:30pm 0.4 -4.0 0.1 98 0.1 WSW 13 17 7 9 - - 1.2
25/11:00pm 0.5 -3.9 0.2 98 0.1 WSW 13 17 7 9 - - 1.2
25/10:30pm 0.4 -4.4 0.1 98 0.1 WSW 15 19 8 10 - - 1.2
25/10:00pm 0.7 -3.3 0.4 98 0.1 WSW 11 13 6 7 - - 1.0
25/09:30pm 0.8 -3.6 0.5 98 0.1 WSW 13 15 7 8 - - 1.0
25/09:00pm 0.8 -3.2 0.5 98 0.1 WSW 11 13 6 7 - - 1.0
25/08:30pm 0.8 -4.0 0.5 98 0.1 WSW 15 20 8 11 - - 1.0
25/08:00pm 0.8 -5.3 0.5 98 0.1 SW 22 24 12 13 - - 1.0
25/07:30pm 0.8 -5.3 0.5 98 0.1 SW 22 24 12 13 - - 0.8
25/07:00pm 0.8 -5.3 0.5 98 0.1 SSW 22 26 12 14 - - 0.8
25/06:30pm 1.5 -4.1 1.2 98 0.1 SSW 20 24 11 13 - - 0.6
25/06:00pm 1.6 -4.4 1.3 98 0.1 SW 22 26 12 14 - - 0.6
25/05:30pm 1.9 -3.6 1.6 98 0.1 SW 20 24 11 13 - - 0.4
25/05:00pm 1.9 -3.6 1.6 98 0.1 SW 20 24 11 13 - - 0.4
25/04:30pm 2.1 -2.5 1.8 98 0.1 SW 15 19 8 10 - - 0.2
25/04:00pm 2.4 -2.9 2.1 98 0.1 SW 19 24 10 13 - - 0.0
25/03:30pm 2.7 -2.7 2.4 98 0.1 SW 20 26 11 14 - - 0.0
25/03:00pm 2.7 -2.1 2.4 98 0.1 SW 17 20 9 11 - - 0.0
25/02:30pm 2.7 -2.7 2.4 98 0.1 SW 20 24 11 13 - - 0.0
25/02:00pm 2.8 -2.6 2.5 98 0.1 WSW 20 26 11 14 - - 0.0
25/01:30pm 3.2 -1.9 2.9 98 0.1 WSW 19 22 10 12 - - 0.0
25/01:00pm 3.0 -1.8 2.7 98 0.1 WSW 17 22 9 12 - - 0.0
25/12:30pm 3.6 -0.7 3.3 98 0.1 W 15 19 8 10 - - 0.0
25/12:00pm 3.5 -0.8 3.2 98 0.1 WSW 15 20 8 11 - - 0.0
25/11:30am 3.8 -0.5 3.5 98 0.1 WSW 15 19 8 10 - - 0.0
25/11:00am 3.2 -1.2 2.9 98 0.1 SW 15 19 8 10 - - 0.0
25/10:30am 2.9 -2.3 2.6 98 0.1 WSW 19 24 10 13 - - 0.0
25/10:00am 3.0 -2.7 2.7 98 0.1 WSW 22 26 12 14 - - 0.0
25/09:30am 3.2 -2.9 2.9 98 0.1 SW 24 28 13 15 - - 0.0
25/09:00am 3.0 -3.1 2.7 98 0.1 SW 24 30 13 16 - - 3.0
25/08:30am 3.0 -3.1 2.7 98 0.1 SSW 24 32 13 17 - - 2.8
25/08:00am 2.7 -3.5 2.4 98 0.1 SSW 24 32 13 17 - - 2.8
25/07:30am 3.0 -2.4 2.7 98 0.1 SW 20 28 11 15 - - 2.2
25/07:00am 3.0 -1.8 2.7 98 0.1 SSW 17 22 9 12 - - 2.0
25/06:30am 2.9 -4.0 2.6 98 0.1 SSW 28 32 15 17 - - 1.8
25/06:00am 2.7 -5.0 2.4 98 0.1 SSW 32 35 17 19 - - 1.8
25/05:30am 2.7 -4.6 2.4 98 0.1 SSW 30 35 16 19 - - 1.8
25/05:00am 3.0 -3.5 2.7 98 0.1 SW 26 33 14 18 - - 1.8
25/04:30am 3.0 -3.9 2.7 98 0.1 SW 28 35 15 19 - - 1.8
25/04:00am 3.0 -2.4 2.7 98 0.1 WSW 20 26 11 14 - - 1.8
25/03:30am 3.0 -1.8 2.7 98 0.1 WSW 17 24 9 13 - - 1.6
25/03:00am 3.0 -1.8 2.7 98 0.1 SW 17 24 9 13 - - 1.6
25/02:30am 3.0 -1.0 2.7 98 0.1 WSW 13 19 7 10 - - 1.6
25/02:00am 3.0 -1.4 2.7 98 0.1 SW 15 20 8 11 - - 1.6
25/01:30am 3.1 -2.0 2.8 98 0.1 SW 19 24 10 13 - - 1.6
25/01:00am 3.3 -0.3 3.0 98 0.1 SW 11 30 6 16 - - 1.4
25/12:30am 3.6 -0.7 3.3 98 0.1 SW 15 20 8 11 - - 1.4
25/12:00am 3.7 -1.5 3.4 98 0.1 SW 20 24 11 13 - - 1.4
 
Date/Time
EST
Tmp

°C
App
Tmp
°C
Dew
Point
°C
Rel
Hum
%
Delta-T

°C
Wind Press
QNH
hPa
Press
MSL
hPa
Rain
since
9 am
mm
Dir
 
Spd
km/h
Gust
km/h
Spd
kts
Gust
kts
24/11:30pm 3.9 -2.1 3.6 98 0.1 SW 24 28 13 15 - - 1.2
24/11:00pm 4.0 -1.0 3.7 98 0.1 SW 19 24 10 13 - - 1.2
24/10:30pm 4.1 -3.0 3.8 98 0.1 SW 30 35 16 19 - - 1.2
24/10:00pm 4.0 -1.9 3.7 98 0.1 SW 24 28 13 15 - - 1.0
24/09:30pm 4.4 -0.5 4.1 98 0.1 SW 19 24 10 13 - - 1.0
24/09:00pm 4.4 -1.8 4.1 98 0.1 SW 26 30 14 16 - - 1.0
24/08:30pm 4.5 -1.3 4.2 98 0.1 SSW 24 30 13 16 - - 1.0
24/08:00pm 4.6 -0.8 4.3 98 0.1 SW 22 28 12 15 - - 1.0
24/07:30pm 4.7 -1.5 4.4 98 0.1 SW 26 32 14 17 - - 1.0
24/07:00pm 4.9 -0.5 4.6 98 0.1 WSW 22 30 12 16 - - 1.0
24/06:30pm 5.1 -0.2 4.8 98 0.1 SSW 22 32 12 17 - - 1.0
24/06:00pm 5.1 0.7 4.8 98 0.1 WSW 17 22 9 12 - - 1.0
24/05:30pm 5.1 -0.2 4.8 98 0.1 WSW 22 28 12 15 - - 1.0
24/05:00pm 5.3 0.0 5.0 98 0.1 SW 22 26 12 14 - - 1.0
24/04:30pm 5.8 0.2 5.5 98 0.1 SW 24 28 13 15 - - 1.0
24/04:00pm 6.0 0.8 5.7 98 0.1 WSW 22 30 12 16 - - 1.0
24/03:30pm 6.3 1.8 5.9 97 0.2 WSW 19 24 10 13 - - 1.0
24/03:00pm 6.6 1.9 6.2 97 0.2 WSW 20 24 11 13 - - 1.0
24/02:30pm 6.8 2.7 6.2 96 0.3 SW 17 20 9 11 - - 1.0
24/02:00pm 6.8 2.7 6.4 97 0.2 WSW 17 20 9 11 - - 1.0
24/01:30pm 7.5 3.4 6.4 93 0.5 WSW 17 20 9 11 - - 1.0
24/01:00pm 7.2 3.0 5.7 90 0.7 WSW 17 20 9 11 - - 1.0
24/12:30pm 7.2 4.7 6.5 95 0.3 WSW 9 13 5 7 - - 1.0
24/12:00pm 7.8 4.7 7.4 97 0.2 WSW 13 15 7 8 - - 1.0
24/11:30am 6.6 3.6 6.2 97 0.2 WSW 11 13 6 7 - - 1.0
24/11:00am 6.7 3.8 6.3 97 0.2 WSW 11 13 6 7 - - 1.0
24/10:30am 7.0 5.4 6.3 95 0.3 WNW 4 6 2 3 - - 1.0
24/10:00am 6.2 3.9 5.9 98 0.1 WNW 7 9 4 5 - - 1.0
24/09:30am 5.7 2.2 5.4 98 0.1 W 13 15 7 8 - - 0.4
24/09:00am 5.5 1.9 5.2 98 0.1 W 13 15 7 8 - - 3.2
24/08:30am 5.4 2.6 5.1 98 0.1 WSW 9 13 5 7 - - 2.8
24/08:00am 5.1 1.8 4.8 98 0.1 W 11 13 6 7 - - 1.6
24/07:30am 5.1 1.1 4.8 98 0.1 WSW 15 17 8 9 - - 1.4
24/07:00am 5.1 1.1 4.8 98 0.1 WSW 15 17 8 9 - - 1.4
24/06:30am 5.0 1.3 4.7 98 0.1 WSW 13 15 7 8 - - 1.4
24/06:00am 4.9 0.8 4.5 97 0.2 WSW 15 19 8 10 - - 1.4
24/05:30am 5.0 0.9 4.6 97 0.2 W 15 17 8 9 - - 1.4
24/05:00am 5.0 0.2 4.6 97 0.2 WSW 19 22 10 12 - - 1.4
24/04:30am 4.7 0.2 4.0 95 0.3 W 17 17 9 9 - - 1.4
24/04:00am 4.8 1.3 3.6 92 0.5 W 11 13 6 7 - - 1.4
24/03:30am 6.4 1.9 1.9 73 2.0 NW 15 17 8 9 - - 1.4
24/03:00am 5.8 2.2 2.8 81 1.3 WNW 11 13 6 7 - - 1.4
24/02:30am 6.0 2.0 3.0 81 1.3 WNW 13 15 7 8 - - 1.4
24/02:00am 6.7 2.2 2.4 74 1.9 WNW 15 20 8 11 - - 1.4
24/01:30am 6.2 2.7 3.5 83 1.2 WNW 11 15 6 8 - - 1.4
24/01:00am 7.1 1.5 3.3 77 1.7 NW 22 28 12 15 - - 1.4
24/12:30am 6.2 1.2 4.5 89 0.8 NNW 20 26 11 14 - - 1.4
24/12:00am 6.1 1.5 3.9 86 1.0 NNW 17 22 9 12 - - 1.2
 
Date/Time
EST
Tmp

°C
App
Tmp
°C
Dew
Point
°C
Rel
Hum
%
Delta-T

°C
Wind Press
QNH
hPa
Press
MSL
hPa
Rain
since
9 am
mm
Dir
 
Spd
km/h
Gust
km/h
Spd
kts
Gust
kts
23/11:30pm 5.8 1.3 4.3 90 0.7 NNW 17 19 9 10 - - 1.2
23/11:00pm 6.0 1.2 2.8 80 1.4 N 17 24 9 13 - - 1.2
23/10:30pm 6.0 0.5 0.8 69 2.2 N 19 20 10 11 - - 1.2
23/10:00pm 6.3 0.7 0.0 64 2.6 N 19 22 10 12 - - 1.2
23/09:30pm 5.7 1.3 2.5 80 1.4 N 15 19 8 10 - - 1.2
23/09:00pm 4.8 -0.7 0.6 74 1.8 N 19 22 10 12 - - 1.2
23/08:30pm 5.0 0.6 4.6 97 0.2 NNE 17 20 9 11 - - 1.2
23/08:00pm 5.6 2.4 5.3 98 0.1 NE 11 15 6 8 - - 1.2
23/07:30pm 5.8 2.7 5.5 98 0.1 NNE 11 13 6 7 - - 1.0
23/07:00pm 6.0 2.9 5.7 98 0.1 NNE 11 13 6 7 - - 0.8
23/06:30pm 6.1 3.1 5.8 98 0.1 ENE 11 13 6 7 - - 0.6
23/06:00pm 6.1 3.4 5.8 98 0.1 ENE 9 13 5 7 - - 0.2
23/05:30pm 5.9 2.8 5.6 98 0.1 NE 11 13 6 7 - - 0.0
23/05:00pm 5.9 2.4 5.6 98 0.1 NNE 13 17 7 9 - - 0.0
23/04:30pm 6.2 2.4 5.9 98 0.1 NNE 15 19 8 10 - - 0.0
23/04:00pm 6.2 2.4 5.9 98 0.1 NNE 15 19 8 10 - - 0.0
23/03:30pm 6.3 2.2 6.0 98 0.1 NNE 17 22 9 12 - - 0.0
23/03:00pm 6.4 2.7 6.1 98 0.1 NNE 15 20 8 11 - - 0.0

Latest Capital City Observations: Canberra | Sydney | Melbourne | Brisbane | Adelaide | Perth | Hobart | Darwin

Other Formats:

Comma delimited format used in spreadsheet applications
http://www.bom.gov.au/fwo/IDT60901/IDT60901.95979.axf

JavaScript Object Notation format (JSON) in row-major order
http://www.bom.gov.au/fwo/IDT60901/IDT60901.95979.json